Time;durP1;ratioP1;P1;durP2;ratioP2;P2;SDS_P1;SDS_P2;PMS_P1;PMS_P2;Temp;Humidity;BMP_temperature;BMP_pressure;BME280_temperature;BME280_humidity;BME280_pressure;Samples;Min_cycle;Max_cycle;Signal;HPM_P1;HPM_P2
2023/05/07 00:00:59;;;;;;;1.30;1.20;;;18.40;32.20;;;;;;6121625;23;20163;-82
2023/05/07 00:03:26;;;;;;;1.13;1.02;;;18.40;32.20;;;;;;6098199;23;20167;-82
2023/05/07 00:05:52;;;;;;;1.42;1.10;;;18.40;32.30;;;;;;6122231;23;20143;-82
2023/05/07 00:08:19;;;;;;;1.23;1.13;;;18.40;32.30;;;;;;6097880;23;20631;-81
2023/05/07 00:10:46;;;;;;;1.20;1.10;;;18.40;32.30;;;;;;6097303;23;20175;-82
2023/05/07 00:13:15;;;;;;;1.20;1.10;;;18.40;32.30;;;;;;6097560;23;20148;-81
2023/05/07 00:15:41;;;;;;;2.25;1.17;;;18.40;32.30;;;;;;6199319;23;20211;-81
2023/05/07 00:18:07;;;;;;;1.20;1.13;;;18.40;32.30;;;;;;6122453;23;20156;-82
2023/05/07 00:20:33;;;;;;;1.42;1.20;;;18.40;32.40;;;;;;6121699;23;20610;-82
2023/05/07 00:22:59;;;;;;;1.42;1.25;;;18.40;32.40;;;;;;6123237;23;20136;-81
2023/05/07 00:25:25;;;;;;;1.17;1.10;;;18.40;32.40;;;;;;6123067;23;20160;-82
2023/05/07 00:27:51;;;;;;;1.42;1.20;;;18.40;32.40;;;;;;6123063;23;20441;-82
2023/05/07 00:30:17;;;;;;;1.27;1.17;;;18.40;32.40;;;;;;6123231;23;20137;-82
2023/05/07 00:32:48;;;;;;;1.50;1.38;;;18.40;32.40;;;;;;6121649;23;20136;-82
2023/05/07 00:35:14;;;;;;;1.33;1.23;;;18.40;32.40;;;;;;6072994;23;20200;-81
2023/05/07 00:37:40;;;;;;;1.17;1.08;;;18.40;32.40;;;;;;6097955;23;20172;-81
2023/05/07 00:40:08;;;;;;;1.30;1.20;;;18.40;32.50;;;;;;6098603;23;20501;-82
2023/05/07 00:42:34;;;;;;;1.05;1.02;;;18.40;32.40;;;;;;6123391;23;20211;-81
2023/05/07 00:44:59;;;;;;;1.23;1.13;;;18.40;32.40;;;;;;6122161;23;20502;-82
2023/05/07 00:47:25;;;;;;;1.40;1.30;;;18.40;32.50;;;;;;6122015;23;20575;-81
2023/05/07 00:49:55;;;;;;;1.52;1.42;;;18.40;32.50;;;;;;6121613;23;20245;-81
2023/05/07 00:52:21;;;;;;;1.42;1.33;;;18.40;32.50;;;;;;6199195;23;20222;-81
2023/05/07 00:54:47;;;;;;;1.42;1.25;;;18.30;32.50;;;;;;6121578;23;20464;-82
2023/05/07 00:57:13;;;;;;;1.20;1.10;;;18.40;32.50;;;;;;6097101;23;20155;-81
2023/05/07 00:59:40;;;;;;;1.40;1.30;;;18.40;32.60;;;;;;6121392;23;20206;-82
2023/05/07 01:02:10;;;;;;;2.05;1.40;;;18.30;32.50;;;;;;6097183;23;20187;-81
2023/05/07 01:04:36;;;;;;;0.88;0.88;;;18.40;32.60;;;;;;6173982;23;20156;-82
2023/05/07 01:07:02;;;;;;;1.38;1.25;;;18.30;32.60;;;;;;6122084;23;20140;-81
2023/05/07 01:09:28;;;;;;;1.60;1.40;;;18.40;32.60;;;;;;6121801;23;20305;-81
2023/05/07 01:11:54;;;;;;;1.17;1.08;;;18.30;32.60;;;;;;6097111;23;20149;-82
2023/05/07 01:14:20;;;;;;;1.35;1.20;;;18.30;32.60;;;;;;6218769;23;20162;-82
2023/05/07 01:16:47;;;;;;;1.40;1.20;;;18.40;32.60;;;;;;6245184;23;20145;-81
2023/05/07 01:19:17;;;;;;;1.40;1.10;;;18.40;33.40;;;;;;6219399;23;20153;-82
2023/05/07 01:21:46;;;;;;;1.85;1.10;;;18.30;32.60;;;;;;6144626;23;20156;-82
2023/05/07 01:24:12;;;;;;;1.20;1.10;;;18.30;32.70;;;;;;6244516;23;20232;-81
2023/05/07 01:26:39;;;;;;;1.38;1.27;;;18.30;32.70;;;;;;6218545;23;20242;-82
2023/05/07 01:29:04;;;;;;;1.33;1.20;;;18.30;33.40;;;;;;6243611;23;20188;-81
2023/05/07 01:31:30;;;;;;;1.60;1.20;;;18.30;32.70;;;;;;6218292;23;20138;-81
2023/05/07 01:33:56;;;;;;;1.52;1.30;;;18.30;32.70;;;;;;6193448;23;20149;-81
2023/05/07 01:36:23;;;;;;;1.05;1.02;;;18.30;32.80;;;;;;6090511;23;20267;-81
2023/05/07 01:38:49;;;;;;;1.35;1.17;;;18.30;32.80;;;;;;6090740;23;20491;-81
2023/05/07 01:41:16;;;;;;;1.17;1.08;;;18.30;32.80;;;;;;6067021;23;20161;-82
2023/05/07 01:43:41;;;;;;;1.30;1.20;;;18.30;32.80;;;;;;6067774;23;20231;-81
2023/05/07 01:46:09;;;;;;;1.15;1.05;;;18.40;32.80;;;;;;6118331;23;20156;-81
2023/05/07 01:48:35;;;;;;;1.30;1.20;;;18.30;32.80;;;;;;6123110;23;20168;-81
2023/05/07 01:51:02;;;;;;;1.10;1.00;;;18.30;32.80;;;;;;6225575;23;20147;-81
2023/05/07 01:53:28;;;;;;;1.40;1.30;;;18.30;32.90;;;;;;6200353;23;20152;-81
2023/05/07 01:55:54;;;;;;;1.38;1.27;;;18.30;32.90;;;;;;6123312;23;20198;-81
2023/05/07 01:58:20;;;;;;;1.38;1.27;;;18.30;32.90;;;;;;6123161;23;20138;-81
2023/05/07 02:00:46;;;;;;;1.30;1.20;;;18.30;33.00;;;;;;6200890;23;20156;-81
2023/05/07 02:03:12;;;;;;;1.90;1.30;;;18.30;32.90;;;;;;6225915;23;20449;-81
2023/05/07 02:05:38;;;;;;;1.30;1.20;;;18.30;32.90;;;;;;6225758;23;20143;-81
2023/05/07 02:08:04;;;;;;;1.38;1.27;;;18.30;33.00;;;;;;6226222;23;20549;-81
2023/05/07 02:10:30;;;;;;;1.17;1.08;;;18.30;33.00;;;;;;6123233;23;20564;-81
2023/05/07 02:12:56;;;;;;;1.35;1.20;;;18.30;33.00;;;;;;6200545;23;20159;-82
2023/05/07 02:15:22;;;;;;;1.30;1.20;;;18.30;33.00;;;;;;6199920;23;20590;-82
2023/05/07 02:18:04;;;;;;;1.50;1.23;;;18.30;33.00;;;;;;6226598;23;20133;-81
2023/05/07 02:20:30;;;;;;;1.20;1.10;;;18.30;33.00;;;;;;6123563;23;20132;-81
2023/05/07 02:22:56;;;;;;;1.20;1.10;;;18.30;33.00;;;;;;6123757;23;20507;-82
2023/05/07 02:25:22;;;;;;;1.40;1.30;;;18.20;33.00;;;;;;6225758;23;20578;-81
2023/05/07 02:27:48;;;;;;;2.28;1.20;;;18.20;33.00;;;;;;6123094;23;20136;-81
2023/05/07 02:30:14;;;;;;;1.30;1.20;;;18.20;33.00;;;;;;6199910;23;20148;-81
2023/05/07 02:32:40;;;;;;;1.73;1.30;;;18.30;33.10;;;;;;6225063;23;20207;-81
2023/05/07 02:35:06;;;;;;;1.17;1.08;;;18.30;33.10;;;;;;6122815;22;20623;-81
2023/05/07 02:37:32;;;;;;;1.50;1.30;;;18.30;33.10;;;;;;6199543;23;20156;-81
2023/05/07 02:39:58;;;;;;;1.52;1.30;;;18.30;33.20;;;;;;6123148;23;20557;-81
2023/05/07 02:42:24;;;;;;;1.33;1.23;;;18.30;33.10;;;;;;6122946;23;20143;-81
2023/05/07 02:44:50;;;;;;;1.20;1.10;;;18.30;33.20;;;;;;6225629;23;20160;-81
2023/05/07 02:47:16;;;;;;;1.33;1.23;;;18.30;33.20;;;;;;6122999;23;20632;-81
2023/05/07 02:49:42;;;;;;;1.50;1.40;;;18.30;33.20;;;;;;6225133;23;20180;-81
2023/05/07 02:52:08;;;;;;;1.10;1.00;;;18.20;33.20;;;;;;6225626;23;20137;-82
2023/05/07 02:54:34;;;;;;;1.30;1.20;;;18.30;33.20;;;;;;6122885;23;20167;-81
2023/05/07 02:57:00;;;;;;;1.10;1.00;;;18.20;33.20;;;;;;6225097;23;20132;-81
2023/05/07 02:59:26;;;;;;;1.00;0.90;;;18.20;33.20;;;;;;6225177;23;20235;-81
2023/05/07 03:01:52;;;;;;;1.33;1.23;;;18.20;33.20;;;;;;6225254;23;20163;-81
2023/05/07 03:04:18;;;;;;;1.35;1.20;;;18.20;33.20;;;;;;6122938;23;20144;-82
2023/05/07 03:06:44;;;;;;;1.20;1.10;;;18.20;33.30;;;;;;6224970;23;20140;-81
2023/05/07 03:09:10;;;;;;;1.33;1.23;;;18.20;33.30;;;;;;6123325;23;20584;-81
2023/05/07 03:11:36;;;;;;;1.35;1.10;;;18.20;33.30;;;;;;6123064;23;20133;-81
2023/05/07 03:14:02;;;;;;;0.98;0.98;;;18.20;33.30;;;;;;6225486;23;20583;-81
2023/05/07 03:16:28;;;;;;;1.40;1.30;;;18.20;33.30;;;;;;6200442;23;20152;-81
2023/05/07 03:18:54;;;;;;;1.38;1.25;;;18.20;33.40;;;;;;6123578;23;20529;-81
2023/05/07 03:21:20;;;;;;;1.00;1.00;;;18.10;33.30;;;;;;6199478;23;20234;-81
2023/05/07 03:23:50;;;;;;;1.45;1.35;;;18.20;34.10;;;;;;6122884;23;20143;-81
2023/05/07 03:26:16;;;;;;;1.95;1.45;;;18.20;33.40;;;;;;6173795;23;20528;-81
2023/05/07 03:28:42;;;;;;;1.95;1.40;;;18.20;33.40;;;;;;6224972;23;20251;-83
2023/05/07 03:31:08;;;;;;;1.90;1.13;;;18.20;33.50;;;;;;6200167;23;20148;-81
2023/05/07 03:33:34;;;;;;;1.17;1.08;;;18.20;33.40;;;;;;6199586;23;20148;-81
2023/05/07 03:36:01;;;;;;;1.30;1.20;;;18.20;33.40;;;;;;6135459;23;20200;-81
2023/05/07 03:38:27;;;;;;;1.40;1.30;;;18.20;33.40;;;;;;6121994;23;20143;-81
2023/05/07 03:40:52;;;;;;;1.20;1.10;;;18.20;33.40;;;;;;6123071;23;20141;-81
2023/05/07 03:43:18;;;;;;;1.40;1.30;;;18.20;33.50;;;;;;6123462;23;20141;-81
2023/05/07 03:45:44;;;;;;;1.40;1.20;;;18.20;33.50;;;;;;6122022;23;20141;-81
2023/05/07 03:48:10;;;;;;;1.55;1.42;;;18.20;33.50;;;;;;6122872;23;20164;-81
2023/05/07 03:50:37;;;;;;;1.40;1.30;;;18.20;33.50;;;;;;6121657;23;20132;-80
2023/05/07 03:53:03;;;;;;;0.88;0.88;;;18.20;33.50;;;;;;6123021;23;20560;-81
2023/05/07 03:55:29;;;;;;;1.85;1.38;;;18.20;33.50;;;;;;6123097;23;20212;-81
2023/05/07 03:57:56;;;;;;;1.63;1.35;;;18.20;33.50;;;;;;6121858;23;20584;-81
2023/05/07 04:00:22;;;;;;;1.27;1.10;;;18.20;33.50;;;;;;6121794;23;20132;-81
2023/05/07 04:02:48;;;;;;;1.20;1.10;;;18.20;33.50;;;;;;6097373;23;20159;-81
2023/05/07 04:05:15;;;;;;;1.20;1.10;;;18.20;33.50;;;;;;6121753;23;20140;-81
2023/05/07 04:07:41;;;;;;;1.27;1.10;;;18.20;33.50;;;;;;6121652;23;20133;-81
2023/05/07 04:10:07;;;;;;;1.20;1.10;;;18.20;33.50;;;;;;6122075;23;20207;-81
2023/05/07 04:12:33;;;;;;;1.85;1.20;;;18.30;33.50;;;;;;6097292;23;20187;-81
2023/05/07 04:14:59;;;;;;;1.30;1.20;;;18.20;33.50;;;;;;6123421;23;20498;-81
2023/05/07 04:17:25;;;;;;;1.23;1.10;;;18.20;33.50;;;;;;6121891;23;20590;-81
2023/05/07 04:19:51;;;;;;;1.35;1.25;;;18.20;33.50;;;;;;6097241;23;20156;-81
2023/05/07 04:22:17;;;;;;;1.30;1.20;;;18.30;33.50;;;;;;6123517;23;20140;-81
2023/05/07 04:24:43;;;;;;;1.48;1.25;;;18.30;33.50;;;;;;6123426;23;20136;-81
2023/05/07 04:27:09;;;;;;;1.35;1.20;;;18.30;33.50;;;;;;6123241;23;20160;-80
2023/05/07 04:29:35;;;;;;;1.50;1.40;;;18.30;33.40;;;;;;6122991;23;20171;-81
2023/05/07 04:32:01;;;;;;;1.30;1.20;;;18.30;33.50;;;;;;6123330;23;20136;-81
2023/05/07 04:34:27;;;;;;;1.20;1.10;;;18.40;33.50;;;;;;6096904;22;20156;-80
2023/05/07 04:36:52;;;;;;;1.83;1.20;;;18.30;33.40;;;;;;6224662;23;20258;-81
2023/05/07 04:39:18;;;;;;;1.40;1.30;;;18.30;33.40;;;;;;6225163;23;20523;-81
2023/05/07 04:41:45;;;;;;;1.20;1.10;;;18.40;33.40;;;;;;6123546;23;20460;-80
2023/05/07 04:44:11;;;;;;;1.38;1.27;;;18.40;33.40;;;;;;6123018;23;20139;-81
2023/05/07 04:46:37;;;;;;;1.25;1.15;;;18.30;33.40;;;;;;6224401;23;20152;-81
2023/05/07 04:49:03;;;;;;;1.25;1.10;;;18.30;33.40;;;;;;6199761;23;20208;-81
2023/05/07 04:51:29;;;;;;;1.40;1.30;;;18.40;33.40;;;;;;6122982;23;20571;-81
2023/05/07 04:53:55;;;;;;;1.10;1.00;;;18.30;33.40;;;;;;6225282;23;20188;-81
2023/05/07 04:56:21;;;;;;;1.20;1.10;;;18.40;33.50;;;;;;6122869;23;20191;-81
2023/05/07 04:58:47;;;;;;;1.10;1.00;;;18.30;33.40;;;;;;6225066;23;20137;-81
2023/05/07 05:01:13;;;;;;;0.90;0.90;;;18.40;33.50;;;;;;6122961;23;20211;-81
2023/05/07 05:03:39;;;;;;;1.30;1.20;;;18.40;33.40;;;;;;6122882;23;20217;-80
2023/05/07 05:06:05;;;;;;;1.50;1.40;;;18.40;33.40;;;;;;6224224;23;20219;-81
2023/05/07 05:08:31;;;;;;;1.65;1.30;;;18.40;33.50;;;;;;6224234;23;20239;-81
2023/05/07 05:10:57;;;;;;;1.45;1.30;;;18.40;33.40;;;;;;6123209;23;20163;-81
2023/05/07 05:13:23;;;;;;;1.13;1.02;;;18.40;33.40;;;;;;6122641;23;20171;-81
2023/05/07 05:15:53;;;;;;;1.23;1.13;;;18.40;33.40;;;;;;6123094;23;20464;-81
2023/05/07 05:18:20;;;;;;;1.48;1.33;;;18.40;33.40;;;;;;6152041;23;20198;-80
2023/05/07 05:20:46;;;;;;;1.20;1.10;;;18.50;33.40;;;;;;6126255;23;20139;-81
2023/05/07 05:23:12;;;;;;;1.20;1.10;;;18.50;33.40;;;;;;6228551;23;20140;-81
2023/05/07 05:25:39;;;;;;;1.27;1.17;;;18.50;33.40;;;;;;6228232;23;20555;-81
2023/05/07 05:28:05;;;;;;;1.08;0.98;;;18.50;33.30;;;;;;6227503;23;20141;-80
2023/05/07 05:30:31;;;;;;;1.48;1.38;;;18.50;33.30;;;;;;6228778;23;20136;-81
2023/05/07 05:32:56;;;;;;;1.40;1.25;;;18.60;33.30;;;;;;6227947;23;20139;-81
2023/05/07 05:35:22;;;;;;;1.58;1.10;;;18.50;33.30;;;;;;6202446;23;20196;-81
2023/05/07 05:37:48;;;;;;;1.67;1.02;;;18.60;33.30;;;;;;6126107;23;20198;-81
2023/05/07 05:40:14;;;;;;;1.30;1.20;;;18.60;33.30;;;;;;6228425;23;20132;-81
2023/05/07 05:42:40;;;;;;;1.80;1.20;;;18.60;33.30;;;;;;6126317;23;20133;-81
2023/05/07 05:45:07;;;;;;;1.27;1.17;;;18.60;33.30;;;;;;6203393;23;20168;-82
2023/05/07 05:47:33;;;;;;;1.20;1.10;;;18.60;33.30;;;;;;6202705;23;20144;-81
2023/05/07 05:49:59;;;;;;;1.20;1.10;;;18.50;33.30;;;;;;6126082;23;20170;-82
2023/05/07 05:52:25;;;;;;;1.20;1.10;;;18.50;33.30;;;;;;6125964;23;20136;-81
2023/05/07 05:54:50;;;;;;;1.10;1.00;;;18.50;33.40;;;;;;6227798;23;20643;-81
2023/05/07 05:57:17;;;;;;;1.33;1.10;;;18.60;33.40;;;;;;6126069;23;20137;-81
2023/05/07 05:59:42;;;;;;;1.40;1.30;;;18.60;33.40;;;;;;6228081;23;20143;-81
2023/05/07 06:02:08;;;;;;;1.08;1.08;;;18.50;33.30;;;;;;6126337;23;20140;-81
2023/05/07 06:04:34;;;;;;;1.20;1.10;;;18.50;33.30;;;;;;6228838;23;20152;-81
2023/05/07 06:07:00;;;;;;;1.30;1.20;;;18.60;33.40;;;;;;6228340;23;20568;-81
2023/05/07 06:09:30;;;;;;;0.98;0.98;;;18.60;33.30;;;;;;6202499;23;20180;-81
2023/05/07 06:12:01;;;;;;;1.05;0.95;;;18.60;33.40;;;;;;6127808;23;20657;-81
2023/05/07 06:14:26;;;;;;;1.45;1.13;;;18.60;33.30;;;;;;6152563;23;20232;-81
2023/05/07 06:16:52;;;;;;;0.90;0.90;;;18.60;33.30;;;;;;6126022;23;20133;-81
2023/05/07 06:19:22;;;;;;;0.95;0.95;;;18.60;33.30;;;;;;6202652;23;20231;-81
2023/05/07 06:21:48;;;;;;;1.20;1.10;;;18.70;33.40;;;;;;6224485;23;20167;-81
2023/05/07 06:24:14;;;;;;;1.20;1.10;;;18.60;33.30;;;;;;6228189;23;20148;-81
2023/05/07 06:26:45;;;;;;;1.17;1.08;;;18.50;33.40;;;;;;6227958;23;20152;-81
2023/05/07 06:29:11;;;;;;;1.30;1.20;;;18.60;33.40;;;;;;6175182;23;20222;-81
2023/05/07 06:31:37;;;;;;;1.13;1.05;;;18.60;33.30;;;;;;6123814;23;20183;-81
2023/05/07 06:34:03;;;;;;;1.13;1.02;;;18.60;33.30;;;;;;6227151;23;20206;-81
2023/05/07 06:36:29;;;;;;;1.10;1.00;;;18.70;33.40;;;;;;6226064;23;20192;-82
2023/05/07 06:38:55;;;;;;;2.10;1.13;;;18.70;33.20;;;;;;6124077;23;20137;-81
2023/05/07 06:41:21;;;;;;;1.35;1.25;;;18.70;33.30;;;;;;6124320;23;20136;-81
2023/05/07 06:43:47;;;;;;;1.33;1.23;;;18.70;33.30;;;;;;6225878;23;20143;-81
2023/05/07 06:46:17;;;;;;;1.10;1.00;;;18.80;33.20;;;;;;6124251;23;20141;-81
2023/05/07 06:48:43;;;;;;;1.20;1.10;;;18.90;33.10;;;;;;6175314;23;20188;-82
2023/05/07 06:51:09;;;;;;;1.30;1.20;;;18.80;33.10;;;;;;6226474;23;20223;-82
2023/05/07 06:53:35;;;;;;;1.52;1.30;;;18.80;33.20;;;;;;6201863;23;20575;-81
2023/05/07 06:56:01;;;;;;;1.25;1.15;;;18.70;33.20;;;;;;6226288;23;20188;-81
2023/05/07 06:58:31;;;;;;;1.40;1.30;;;18.70;33.20;;;;;;6226877;23;20132;-81
2023/05/07 07:00:57;;;;;;;1.30;1.20;;;18.70;33.30;;;;;;6175296;23;20156;-80
2023/05/07 07:03:23;;;;;;;1.73;1.60;;;18.80;33.10;;;;;;6226524;23;20160;-81
2023/05/07 07:05:52;;;;;;;1.30;1.20;;;18.70;33.20;;;;;;6226835;23;20140;-81
2023/05/07 07:08:20;;;;;;;1.33;1.20;;;18.70;33.20;;;;;;6225549;23;20206;-81
2023/05/07 07:10:47;;;;;;;1.17;1.08;;;18.70;33.30;;;;;;6124918;23;20129;-80
2023/05/07 07:13:13;;;;;;;1.40;1.30;;;18.70;33.40;;;;;;6123920;23;20137;-80
2023/05/07 07:15:39;;;;;;;0.93;0.93;;;18.70;33.60;;;;;;6202055;23;20474;-81
2023/05/07 07:18:05;;;;;;;1.73;1.10;;;18.60;33.70;;;;;;6225867;23;20137;-81
2023/05/07 07:20:32;;;;;;;1.33;1.10;;;18.50;33.70;;;;;;6226028;23;20587;-81
2023/05/07 07:22:58;;;;;;;1.25;1.15;;;18.50;33.80;;;;;;6225508;23;20144;-81
2023/05/07 07:25:28;;;;;;;1.30;1.20;;;18.50;33.90;;;;;;6125694;23;20137;-81
2023/05/07 07:27:54;;;;;;;1.40;1.13;;;18.50;33.80;;;;;;6151904;23;20152;-82
2023/05/07 07:30:19;;;;;;;1.40;1.30;;;18.50;33.90;;;;;;6231291;23;20598;-82
2023/05/07 07:32:50;;;;;;;1.45;1.20;;;18.60;33.80;;;;;;6229321;23;20503;-82
2023/05/07 07:35:15;;;;;;;3.60;1.27;;;18.60;33.70;;;;;;6154122;23;20628;-82
2023/05/07 07:37:41;;;;;;;1.20;1.10;;;18.50;33.80;;;;;;6126388;23;20154;-82
2023/05/07 07:40:08;;;;;;;1.63;1.40;;;18.60;33.70;;;;;;6127222;23;20152;-82
2023/05/07 07:42:39;;;;;;;2.17;1.30;;;18.60;33.70;;;;;;6103933;23;20600;-82
2023/05/07 07:45:09;;;;;;;2.47;1.23;;;18.60;33.80;;;;;;6231498;23;20219;-82
2023/05/07 07:47:35;;;;;;;1.55;1.30;;;18.60;33.70;;;;;;6154183;23;20156;-82
2023/05/07 07:50:01;;;;;;;1.23;1.13;;;18.60;33.70;;;;;;6102090;23;20172;-82
2023/05/07 07:52:27;;;;;;;1.13;1.02;;;18.70;33.80;;;;;;6127662;23;20136;-82
2023/05/07 07:54:57;;;;;;;1.25;1.15;;;18.60;33.70;;;;;;6128174;23;20560;-83
2023/05/07 07:57:23;;;;;;;1.20;1.10;;;18.50;33.80;;;;;;6175346;23;20207;-82
2023/05/07 07:59:53;;;;;;;1.23;1.10;;;18.70;33.80;;;;;;6127784;23;20148;-82
2023/05/07 08:02:19;;;;;;;1.65;0.80;;;18.70;33.60;;;;;;6075738;23;20192;-82
2023/05/07 08:04:45;;;;;;;3.50;1.17;;;18.80;33.60;;;;;;6124856;23;20137;-81
2023/05/07 08:07:11;;;;;;;1.20;1.05;;;18.80;33.60;;;;;;6124772;23;20136;-82
2023/05/07 08:09:38;;;;;;;1.13;1.02;;;18.70;33.70;;;;;;6124211;23;20176;-81
2023/05/07 08:12:05;;;;;;;1.60;1.10;;;18.70;33.80;;;;;;6123657;23;20575;-82
2023/05/07 08:14:31;;;;;;;0.98;0.98;;;18.60;33.80;;;;;;6124970;23;20144;-81
2023/05/07 08:16:57;;;;;;;1.77;1.10;;;18.60;33.80;;;;;;6122928;23;20175;-82
2023/05/07 08:19:26;;;;;;;0.98;0.95;;;18.60;33.70;;;;;;6123348;23;20215;-82
2023/05/07 08:21:52;;;;;;;1.60;1.13;;;18.70;33.70;;;;;;6150545;23;20535;-81
2023/05/07 08:24:18;;;;;;;1.23;0.82;;;18.60;33.70;;;;;;6099247;23;20144;-81
2023/05/07 08:26:44;;;;;;;0.70;0.70;;;18.70;33.70;;;;;;6124658;23;20618;-82
2023/05/07 08:29:10;;;;;;;0.98;0.90;;;18.70;33.60;;;;;;6122959;23;20175;-81
2023/05/07 08:31:38;;;;;;;0.88;0.88;;;18.70;33.60;;;;;;6098271;23;20144;-81
2023/05/07 08:34:05;;;;;;;1.38;1.00;;;18.70;33.60;;;;;;6123318;23;20143;-81
2023/05/07 08:36:31;;;;;;;0.80;0.80;;;18.70;33.40;;;;;;6123104;22;20188;-82
2023/05/07 08:38:57;;;;;;;1.08;0.98;;;18.70;33.60;;;;;;6199709;23;20152;-82
2023/05/07 08:41:23;;;;;;;1.80;0.90;;;18.70;33.70;;;;;;6225648;23;20175;-81
2023/05/07 08:43:50;;;;;;;0.82;0.82;;;18.60;33.70;;;;;;6224007;23;20155;-81
2023/05/07 08:46:22;;;;;;;0.65;0.65;;;18.60;33.70;;;;;;6224155;23;20184;-81
2023/05/07 08:48:49;;;;;;;2.60;1.02;;;18.60;33.70;;;;;;6173628;23;20621;-81
2023/05/07 08:51:19;;;;;;;3.00;1.00;;;18.60;33.70;;;;;;6223652;23;20369;-81
2023/05/07 08:53:45;;;;;;;2.95;1.25;;;18.60;33.70;;;;;;6199540;23;20148;-81
2023/05/07 08:56:12;;;;;;;4.97;1.42;;;18.60;33.90;;;;;;6200441;23;20156;-81
2023/05/07 08:58:37;;;;;;;5.43;1.75;;;18.60;33.90;;;;;;6224701;23;20133;-81
2023/05/07 09:01:07;;;;;;;11.38;1.45;;;18.50;33.90;;;;;;6123648;23;20270;-81
2023/05/07 09:03:33;;;;;;;14.38;1.98;;;18.50;33.90;;;;;;6201319;23;20163;-81
2023/05/07 09:05:59;;;;;;;12.15;1.75;;;18.60;33.80;;;;;;6199350;23;20156;-81
2023/05/07 09:08:26;;;;;;;23.67;2.38;;;18.60;33.70;;;;;;6200503;23;20172;-82
2023/05/07 09:10:52;;;;;;;18.08;3.00;;;18.70;33.70;;;;;;6122921;23;20133;-81
2023/05/07 09:13:18;;;;;;;24.88;3.10;;;18.60;33.80;;;;;;6224315;23;20133;-82
2023/05/07 09:15:44;;;;;;;25.80;2.70;;;18.60;34.00;;;;;;6224263;23;20144;-81
2023/05/07 09:18:14;;;;;;;17.02;2.53;;;18.60;34.00;;;;;;6122047;23;20549;-81
2023/05/07 09:20:40;;;;;;;27.58;3.28;;;18.60;33.90;;;;;;6173618;23;20583;-81
2023/05/07 09:23:07;;;;;;;27.67;3.17;;;18.60;33.80;;;;;;6223685;23;20145;-81
2023/05/07 09:25:34;;;;;;;20.23;3.03;;;18.60;34.00;;;;;;6223696;23;20216;-81
2023/05/07 09:28:00;;;;;;;32.20;3.63;;;18.60;34.10;;;;;;6198629;23;20155;-82
2023/05/07 09:30:30;;;;;;;22.70;3.10;;;18.60;34.00;;;;;;6199212;23;20191;-81
2023/05/07 09:32:57;;;;;;;22.85;2.70;;;18.60;34.10;;;;;;6199189;23;20160;-81
2023/05/07 09:35:27;;;;;;;24.10;3.22;;;18.60;33.90;;;;;;6224440;23;20196;-81
2023/05/07 09:37:54;;;;;;;21.88;3.03;;;18.60;34.00;;;;;;6219623;23;20152;-81
2023/05/07 09:40:29;;;;;;;26.00;2.83;;;18.60;33.90;;;;;;6223288;23;20187;-81
2023/05/07 09:43:17;;;;;;;15.57;2.70;;;18.70;33.80;;;;;;6221895;23;20459;-82
2023/05/07 09:45:43;;;;;;;26.23;3.38;;;18.70;33.70;;;;;;6199525;23;20148;-82
2023/05/07 09:48:12;;;;;;;17.30;3.10;;;18.70;33.70;;;;;;6199563;23;20232;-82
2023/05/07 09:50:45;;;;;;;17.25;2.50;;;18.70;33.70;;;;;;6223624;23;20128;-82
2023/05/07 09:53:15;;;;;;;19.27;2.50;;;18.70;33.70;;;;;;6223794;23;20137;-82
2023/05/07 09:55:45;;;;;;;8.98;1.88;;;18.70;33.70;;;;;;6173199;23;20152;-82
2023/05/07 09:58:12;;;;;;;12.88;2.10;;;18.70;33.50;;;;;;6148363;23;20235;-82
2023/05/07 10:00:37;;;;;;;10.18;1.60;;;18.70;33.70;;;;;;6225232;23;20215;-82
2023/05/07 10:03:07;;;;;;;14.13;2.15;;;18.70;33.70;;;;;;6123166;23;20171;-82
2023/05/07 10:05:36;;;;;;;10.85;2.00;;;18.60;33.60;;;;;;6175379;23;20595;-82
2023/05/07 10:08:02;;;;;;;14.02;1.67;;;18.70;33.60;;;;;;6200656;23;20195;-83
2023/05/07 10:10:29;;;;;;;12.00;2.00;;;18.70;33.70;;;;;;6226196;23;20152;-83
2023/05/07 10:12:55;;;;;;;10.18;2.10;;;18.70;33.50;;;;;;6122814;23;20135;-83
2023/05/07 10:15:23;;;;;;;13.73;2.05;;;18.70;33.50;;;;;;6225875;23;20159;-82
2023/05/07 10:17:49;;;;;;;17.02;1.80;;;18.70;33.60;;;;;;6122760;23;20125;-83
2023/05/07 10:20:15;;;;;;;9.50;1.88;;;18.60;33.60;;;;;;6225173;23;20133;-83
2023/05/07 10:22:43;;;;;;;9.50;1.67;;;18.70;33.70;;;;;;6200874;23;20457;-83
2023/05/07 10:25:17;;;;;;;5.65;1.70;;;18.70;33.60;;;;;;6224653;23;20144;-83
2023/05/07 10:27:44;;;;;;;8.50;1.70;;;18.60;33.50;;;;;;6225147;23;20142;-82
2023/05/07 10:30:43;;;;;;;10.23;1.90;;;18.70;33.40;;;;;;6123313;23;20165;-83
2023/05/07 10:33:10;;;;;;;4.90;1.38;;;18.70;33.40;;;;;;6197261;23;20164;-83
2023/05/07 10:35:38;;;;;;;6.18;1.40;;;18.70;33.30;;;;;;6123183;22;20310;-83
2023/05/07 10:38:04;;;;;;;4.38;1.50;;;18.80;33.20;;;;;;6224488;23;20168;-83
2023/05/07 10:40:31;;;;;;;8.90;1.70;;;18.80;33.30;;;;;;6226796;23;20564;-84
2023/05/07 10:42:59;;;;;;;8.85;1.60;;;18.80;33.30;;;;;;6202735;23;20178;-83
2023/05/07 10:45:25;;;;;;;9.60;1.60;;;18.80;33.30;;;;;;6202803;23;20145;-83
2023/05/07 10:48:13;;;;;;;9.43;1.80;;;18.80;33.30;;;;;;6226264;23;20140;-83
2023/05/07 10:50:40;;;;;;;6.88;1.65;;;18.80;33.40;;;;;;6226373;23;20140;-83
2023/05/07 10:53:27;;;;;;;6.93;1.75;;;18.80;33.40;;;;;;6202655;23;20148;-83
2023/05/07 10:56:23;;;;;;;8.70;1.70;;;18.80;33.50;;;;;;6224835;23;20158;-83
2023/05/07 10:58:49;;;;;;;4.93;1.42;;;18.70;33.30;;;;;;6225632;23;20179;-83
2023/05/07 11:01:16;;;;;;;5.07;1.48;;;18.70;33.30;;;;;;6200889;23;20152;-83
2023/05/07 11:04:13;;;;;;;5.47;1.30;;;18.70;33.40;;;;;;6225741;23;20599;-83
2023/05/07 11:06:39;;;;;;;4.07;1.70;;;18.80;33.50;;;;;;6123395;23;20179;-83
2023/05/07 11:09:05;;;;;;;5.43;1.20;;;18.90;33.30;;;;;;6199964;23;20267;-83
2023/05/07 11:11:47;;;;;;;5.65;1.58;;;18.80;34.00;;;;;;6200629;23;20152;-83
2023/05/07 11:14:32;;;;;;;5.35;1.45;;;18.80;33.30;;;;;;6224782;23;20129;-83
2023/05/07 11:17:03;;;;;;;3.78;1.15;;;18.80;33.30;;;;;;6167747;23;20175;-83
2023/05/07 11:19:50;;;;;;;5.05;1.42;;;18.80;33.30;;;;;;6123261;23;20572;-83
2023/05/07 11:22:39;;;;;;;6.35;1.40;;;18.80;33.30;;;;;;6225360;23;20520;-83
2023/05/07 11:25:06;;;;;;;7.85;1.55;;;18.80;33.30;;;;;;6123144;23;20156;-83
2023/05/07 11:27:32;;;;;;;3.88;1.48;;;18.80;33.40;;;;;;6224808;23;20471;-83
2023/05/07 11:29:58;;;;;;;4.75;1.50;;;18.80;33.40;;;;;;6224535;23;20170;-84
2023/05/07 11:32:27;;;;;;;6.90;1.58;;;18.80;33.50;;;;;;6224508;23;20133;-83
2023/05/07 11:34:53;;;;;;;4.07;1.50;;;18.80;33.30;;;;;;6199911;23;20200;-83
2023/05/07 11:37:20;;;;;;;6.13;1.30;;;18.80;33.20;;;;;;6225793;23;20158;-83
2023/05/07 11:39:45;;;;;;;6.50;1.48;;;18.80;33.30;;;;;;6225535;23;20171;-83
2023/05/07 11:42:38;;;;;;;2.75;1.30;;;18.80;33.20;;;;;;6200600;23;20157;-83
2023/05/07 11:45:05;;;;;;;3.40;1.20;;;18.80;33.20;;;;;;6225225;23;20231;-83
2023/05/07 11:47:32;;;;;;;6.05;1.20;;;18.80;33.10;;;;;;6200491;23;20520;-83
2023/05/07 11:50:01;;;;;;;2.15;1.02;;;18.70;33.10;;;;;;6199472;23;20183;-83
2023/05/07 11:52:27;;;;;;;2.65;1.33;;;18.80;33.20;;;;;;6199120;23;20198;-83
2023/05/07 11:54:55;;;;;;;2.95;1.30;;;18.80;33.10;;;;;;6122455;23;20219;-83
2023/05/07 11:57:21;;;;;;;4.15;1.27;;;18.80;33.10;;;;;;6224843;23;20132;-83
2023/05/07 11:59:54;;;;;;;2.85;1.25;;;18.80;33.00;;;;;;6229161;23;20133;-83
2023/05/07 12:02:20;;;;;;;4.30;1.30;;;18.80;33.00;;;;;;6203407;23;20148;-83
2023/05/07 12:04:46;;;;;;;2.85;1.00;;;18.80;33.00;;;;;;6200129;23;20492;-83
2023/05/07 12:07:14;;;;;;;2.63;1.20;;;18.80;33.00;;;;;;6199356;23;20248;-82
2023/05/07 12:09:45;;;;;;;3.78;1.33;;;18.80;33.00;;;;;;6223590;23;20204;-83
2023/05/07 12:12:11;;;;;;;1.98;1.00;;;18.80;33.00;;;;;;6173267;23;20233;-83
2023/05/07 12:14:40;;;;;;;2.40;1.17;;;18.90;32.90;;;;;;6224270;23;20560;-83
2023/05/07 12:17:08;;;;;;;4.75;1.13;;;18.80;32.80;;;;;;6224008;23;20140;-83
2023/05/07 12:19:34;;;;;;;1.65;1.00;;;18.80;33.00;;;;;;6199482;23;20175;-83
2023/05/07 12:22:01;;;;;;;2.30;0.90;;;18.80;32.90;;;;;;6122559;23;20603;-83
2023/05/07 12:24:27;;;;;;;5.57;1.42;;;18.80;33.00;;;;;;6224124;23;20145;-83
2023/05/07 12:26:53;;;;;;;2.55;1.25;;;18.80;32.80;;;;;;6121838;23;20464;-82
2023/05/07 12:29:22;;;;;;;2.20;1.15;;;18.80;32.80;;;;;;6224558;23;20219;-82
2023/05/07 12:31:52;;;;;;;2.47;1.20;;;18.80;32.60;;;;;;6224743;23;20144;-82
2023/05/07 12:34:18;;;;;;;3.13;1.17;;;18.90;32.80;;;;;;6148816;23;20231;-82
2023/05/07 12:36:44;;;;;;;2.70;1.10;;;18.90;32.70;;;;;;6125725;23;20222;-82
2023/05/07 12:39:10;;;;;;;1.83;0.85;;;18.80;32.60;;;;;;6122870;23;20460;-82
2023/05/07 12:41:58;;;;;;;2.80;1.10;;;18.80;32.50;;;;;;6122760;23;20148;-82
2023/05/07 12:44:24;;;;;;;1.60;1.08;;;18.90;32.40;;;;;;6097536;23;20144;-82
2023/05/07 12:46:51;;;;;;;2.22;1.38;;;18.90;32.30;;;;;;6122113;23;20148;-83